Time;durP1;ratioP1;P1;durP2;ratioP2;P2;SDS_P1;SDS_P2;PMS_P1;PMS_P2;Temp;Humidity;BMP_temperature;BMP_pressure;BME280_temperature;BME280_humidity;BME280_pressure;Samples;Min_cycle;Max_cycle;Signal;HPM_P1;HPM_P2
2022/07/04 00:00:28;;;;;;;13.97;12.50;;;;;;;25.61;100.00;101413.22;2072071;28;20192;-69
2022/07/04 00:01:28;;;;;;;13.17;11.87;;;;;;;25.62;100.00;101408.31;2072089;28;20182;-69
2022/07/04 00:02:29;;;;;;;14.00;11.60;;;;;;;25.62;100.00;101411.16;2072316;28;20197;-69
2022/07/04 00:03:29;;;;;;;16.20;11.87;;;;;;;25.61;100.00;101416.06;2064514;28;20680;-68
2022/07/04 00:04:29;;;;;;;12.93;11.63;;;;;;;25.53;100.00;101398.00;2063917;28;20270;-68
2022/07/04 00:05:30;;;;;;;12.57;11.37;;;;;;;25.56;100.00;101410.38;2064335;28;20340;-68
2022/07/04 00:06:30;;;;;;;13.13;11.77;;;;;;;25.55;100.00;101409.63;2064613;28;20205;-68
2022/07/04 00:07:31;;;;;;;13.77;11.90;;;;;;;25.56;100.00;101416.84;2064708;28;20634;-68
2022/07/04 00:08:31;;;;;;;12.67;11.33;;;;;;;25.57;100.00;101411.94;2070696;28;20178;-69
2022/07/04 00:09:32;;;;;;;12.40;11.30;;;;;;;25.30;100.00;101379.47;2064219;28;20174;-69
2022/07/04 00:10:32;;;;;;;12.80;10.77;;;;;;;25.44;100.00;101418.13;2064110;28;20171;-69
2022/07/04 00:11:33;;;;;;;11.30;10.10;;;;;;;25.39;100.00;101424.56;2071951;28;20284;-69
2022/07/04 00:12:34;;;;;;;11.53;10.40;;;;;;;24.77;100.00;101325.75;2071902;28;20194;-69
2022/07/04 00:13:34;;;;;;;11.47;10.47;;;;;;;25.35;100.00;101420.47;2066898;28;20221;-68
2022/07/04 00:14:35;;;;;;;12.33;10.97;;;;;;;25.28;100.00;101409.63;2067979;28;20197;-69
2022/07/04 00:15:36;;;;;;;12.70;11.50;;;;;;;25.24;100.00;101417.59;2072320;28;20197;-69
2022/07/04 00:16:36;;;;;;;12.23;11.03;;;;;;;25.21;100.00;101416.56;2072627;28;20174;-69
2022/07/04 00:17:37;;;;;;;13.73;11.47;;;;;;;24.90;100.00;101368.56;2071974;28;20166;-69
2022/07/04 00:18:39;;;;;;;15.50;11.40;;;;;;;25.23;100.00;101422.47;2072193;28;20205;-69
2022/07/04 00:19:39;;;;;;;14.90;11.60;;;;;;;25.22;100.00;101415.25;2065889;28;20170;-68
2022/07/04 00:20:40;;;;;;;19.00;12.40;;;;;;;25.25;100.00;101424.81;2071392;28;20280;-68
2022/07/04 00:21:40;;;;;;;14.60;12.23;;;;;;;24.33;100.00;101285.22;2070239;28;20181;-68
2022/07/04 00:22:41;;;;;;;13.23;12.03;;;;;;;25.19;100.00;101424.78;2071962;28;20200;-69
2022/07/04 00:23:41;;;;;;;12.70;11.50;;;;;;;25.21;100.00;101425.06;2068564;28;20633;-68
2022/07/04 00:24:41;;;;;;;13.90;11.63;;;;;;;25.17;100.00;101421.69;2064425;28;20187;-68
2022/07/04 00:25:42;;;;;;;12.83;11.00;;;;;;;25.17;100.00;101416.03;2064669;28;20589;-68
2022/07/04 00:26:42;;;;;;;13.17;11.63;;;;;;;25.20;100.00;101426.38;2072647;28;20192;-68
2022/07/04 00:27:43;;;;;;;12.50;11.30;;;;;;;25.19;100.00;101421.19;2072655;28;20667;-68
2022/07/04 00:28:44;;;;;;;11.93;10.83;;;;;;;25.00;100.00;101408.78;2071947;28;20192;-68
2022/07/04 00:29:44;;;;;;;13.37;11.20;;;;;;;25.09;100.00;101408.56;2066051;28;20193;-69
2022/07/04 00:30:45;;;;;;;12.27;11.17;;;;;;;25.19;100.00;101419.13;2069104;28;20443;-69
2022/07/04 00:31:45;;;;;;;11.47;10.47;;;;;;;25.13;100.00;101426.09;2070902;28;20189;-68
2022/07/04 00:32:46;;;;;;;12.30;11.10;;;;;;;24.10;100.00;101267.41;2071848;28;20208;-68
2022/07/04 00:33:46;;;;;;;12.43;11.43;;;;;;;24.67;100.00;101349.22;2070494;28;20232;-68
2022/07/04 00:34:46;;;;;;;12.37;11.13;;;;;;;25.08;100.00;101426.88;2065702;28;20178;-68
2022/07/04 00:35:47;;;;;;;12.67;11.43;;;;;;;24.66;100.00;101361.84;2071851;28;20364;-68
2022/07/04 00:36:47;;;;;;;13.40;12.03;;;;;;;25.00;100.00;101418.09;2072407;28;20193;-69
2022/07/04 00:37:48;;;;;;;13.80;12.40;;;;;;;25.01;100.00;101421.69;2065579;28;20240;-68
2022/07/04 00:38:48;;;;;;;13.93;12.53;;;;;;;24.27;100.00;101313.56;2063646;28;20213;-69
2022/07/04 00:39:49;;;;;;;13.33;12.07;;;;;;;24.99;100.00;101419.38;2067826;28;20240;-68
2022/07/04 00:40:50;;;;;;;14.87;12.57;;;;;;;24.97;100.00;101415.50;2071290;28;20576;-68
2022/07/04 00:41:50;;;;;;;15.43;12.40;;;;;;;24.96;100.00;101426.06;2072070;28;20184;-68
2022/07/04 00:42:51;;;;;;;14.43;12.23;;;;;;;24.93;100.00;101414.97;2071770;28;20659;-68
2022/07/04 00:44:06;;;;;;;12.20;11.10;;;;;;;24.89;100.00;101423.75;2072535;28;20217;-69
2022/07/04 00:45:07;;;;;;;14.77;11.73;;;;;;;24.88;100.00;101422.16;2072455;28;20185;-69
2022/07/04 00:46:07;;;;;;;13.13;11.60;;;;;;;24.81;100.00;101421.88;2080004;28;20177;-69
2022/07/04 00:47:08;;;;;;;14.90;11.50;;;;;;;24.22;100.00;101336.19;2071796;28;20189;-68
2022/07/04 00:48:08;;;;;;;13.37;12.07;;;;;;;24.77;100.00;101419.31;2072357;28;20194;-68
2022/07/04 00:49:10;;;;;;;13.20;11.83;;;;;;;24.78;100.00;101418.03;2072003;28;20655;-69
2022/07/04 00:50:11;;;;;;;13.80;12.17;;;;;;;24.61;100.00;101388.09;2072280;28;20232;-69
2022/07/04 00:51:11;;;;;;;15.43;12.00;;;;;;;24.85;100.00;101414.72;2071597;28;20197;-68
2022/07/04 00:52:13;;;;;;;15.63;12.20;;;;;;;24.83;100.00;101416.50;2069908;28;20220;-68
2022/07/04 00:53:14;;;;;;;15.43;12.37;;;;;;;24.85;100.00;101411.09;2063530;28;20175;-68
2022/07/04 00:54:21;;;;;;;15.27;12.40;;;;;;;24.85;100.00;101430.94;2064371;28;20190;-68
2022/07/04 00:55:24;;;;;;;15.00;12.67;;;;;;;24.85;100.00;101419.59;2064210;28;20853;-69
2022/07/04 00:56:25;;;;;;;13.60;12.30;;;;;;;24.85;100.00;101414.72;2064574;28;20179;-68
2022/07/04 00:57:26;;;;;;;13.63;12.23;;;;;;;24.80;100.00;101421.13;2063423;28;20248;-68
2022/07/04 00:58:27;;;;;;;13.43;12.03;;;;;;;24.80;100.00;101418.31;2070812;28;20244;-69
2022/07/04 00:59:28;;;;;;;15.37;13.27;;;;;;;24.34;100.00;101383.88;2066601;28;20289;-68
2022/07/04 01:00:30;;;;;;;13.77;12.47;;;;;;;24.81;100.00;101434.00;2063259;28;20604;-68
2022/07/04 01:01:30;;;;;;;13.67;12.40;;;;;;;24.49;100.00;101380.81;2063919;28;20614;-68
2022/07/04 01:02:31;;;;;;;12.70;11.57;;;;;;;24.65;100.00;101426.25;2063623;28;20220;-69
2022/07/04 01:03:31;;;;;;;13.17;11.90;;;;;;;24.67;100.00;101420.06;2065398;28;20271;-68
2022/07/04 01:04:32;;;;;;;13.33;12.00;;;;;;;24.71;100.00;101420.59;2072284;28;20683;-69
2022/07/04 01:05:32;;;;;;;13.57;12.13;;;;;;;24.71;100.00;101426.28;2064437;28;20174;-68
2022/07/04 01:06:34;;;;;;;12.40;11.20;;;;;;;24.25;100.00;101343.66;2064418;28;20187;-68
2022/07/04 01:07:35;;;;;;;12.37;11.17;;;;;;;24.76;100.00;101422.66;2075699;28;20294;-66
2022/07/04 01:08:39;;;;;;;13.50;11.70;;;;;;;24.70;100.00;101419.81;2071046;28;20261;-69
2022/07/04 01:09:40;;;;;;;12.50;11.30;;;;;;;24.68;100.00;101419.56;2068448;28;20197;-68
2022/07/04 01:10:40;;;;;;;13.10;10.83;;;;;;;24.69;100.00;101418.28;2067878;28;20293;-68
2022/07/04 01:11:41;;;;;;;12.47;11.37;;;;;;;23.69;100.00;101256.94;2063837;28;20206;-68
2022/07/04 01:12:41;;;;;;;13.07;11.87;;;;;;;24.66;100.00;101404.34;2065704;28;20185;-68
2022/07/04 01:13:43;;;;;;;12.97;11.63;;;;;;;24.14;100.00;101329.44;2064124;28;20179;-69
2022/07/04 01:14:43;;;;;;;14.67;13.17;;;;;;;24.68;100.00;101418.78;2072594;28;20174;-68
2022/07/04 01:15:44;;;;;;;14.10;12.80;;;;;;;24.69;100.00;101412.59;2065306;28;20187;-69
2022/07/04 01:16:44;;;;;;;12.80;11.70;;;;;;;24.67;100.00;101415.16;2065094;28;20661;-68
2022/07/04 01:17:45;;;;;;;13.53;12.17;;;;;;;24.68;100.00;101413.91;2065034;28;20253;-69
2022/07/04 01:18:45;;;;;;;14.03;12.00;;;;;;;24.05;100.00;101329.69;2068563;28;20214;-69
2022/07/04 01:19:46;;;;;;;15.60;12.80;;;;;;;24.67;100.00;101417.25;2070451;28;20194;-69
2022/07/04 01:20:47;;;;;;;13.30;12.10;;;;;;;24.68;100.00;101416.72;2066160;28;20579;-69
2022/07/04 01:21:47;;;;;;;12.93;11.70;;;;;;;24.70;100.00;101416.97;2073258;28;20582;-68
2022/07/04 01:22:48;;;;;;;13.80;12.50;;;;;;;24.72;100.00;101416.47;2073347;28;20297;-68
2022/07/04 01:23:48;;;;;;;12.93;11.63;;;;;;;24.71;100.00;101410.03;2066128;28;20205;-68
2022/07/04 01:24:50;;;;;;;12.97;11.87;;;;;;;24.29;100.00;101349.84;2065845;28;20539;-69
2022/07/04 01:25:52;;;;;;;13.97;12.53;;;;;;;24.41;100.00;101359.94;2070994;28;20209;-68
2022/07/04 01:26:52;;;;;;;14.07;12.47;;;;;;;24.71;100.00;101400.75;2073742;28;20208;-68
2022/07/04 01:27:53;;;;;;;14.37;12.97;;;;;;;24.73;100.00;101415.97;2070030;28;20703;-69
2022/07/04 01:28:53;;;;;;;13.73;12.40;;;;;;;24.68;100.00;101407.44;2065368;28;20175;-68
2022/07/04 01:29:53;;;;;;;13.47;12.20;;;;;;;24.63;100.00;101409.00;2064982;28;20178;-69
2022/07/04 01:30:54;;;;;;;13.30;12.00;;;;;;;24.70;100.00;101413.38;2064084;28;20261;-68
2022/07/04 01:31:54;;;;;;;14.40;13.10;;;;;;;24.57;100.00;101407.38;2068699;28;20216;-68
2022/07/04 01:32:56;;;;;;;14.43;12.90;;;;;;;24.02;100.00;101314.50;2073120;28;20198;-68
2022/07/04 01:33:56;;;;;;;13.77;12.37;;;;;;;24.65;100.00;101422.63;2073569;28;20243;-68
2022/07/04 01:34:57;;;;;;;13.23;11.83;;;;;;;24.65;100.00;101416.97;2073720;28;20197;-68
2022/07/04 01:35:57;;;;;;;13.87;12.43;;;;;;;24.65;100.00;101417.75;2069684;28;20183;-68
2022/07/04 01:37:01;;;;;;;12.90;11.70;;;;;;;24.68;100.00;101425.22;2067492;28;20678;-68
2022/07/04 01:38:01;;;;;;;13.20;11.67;;;;;;;24.33;100.00;101356.81;2072530;28;20208;-69
2022/07/04 01:39:02;;;;;;;13.30;11.83;;;;;;;24.71;100.00;101415.69;2066100;28;20198;-68
2022/07/04 01:40:03;;;;;;;14.33;12.60;;;;;;;24.56;100.00;101383.16;2072819;28;20613;-68
2022/07/04 01:41:04;;;;;;;13.80;12.50;;;;;;;23.97;100.00;101297.47;2072968;28;20181;-68
2022/07/04 01:42:05;;;;;;;14.50;13.10;;;;;;;23.56;100.00;101229.09;2072833;28;20205;-68
2022/07/04 01:43:06;;;;;;;14.40;13.07;;;;;;;24.74;100.00;101414.69;2072022;28;20279;-68
2022/07/04 01:44:06;;;;;;;16.73;13.10;;;;;;;24.70;100.00;101399.97;2072962;28;20190;-68
2022/07/04 01:45:08;;;;;;;19.90;12.93;;;;;;;24.75;100.00;101412.59;2073599;28;20197;-68
2022/07/04 01:46:09;;;;;;;19.83;12.23;;;;;;;24.73;100.00;101403.84;2071048;28;20313;-68
2022/07/04 01:47:09;;;;;;;17.03;14.00;;;;;;;24.72;100.00;101408.72;2066984;28;20306;-68
2022/07/04 01:48:11;;;;;;;20.50;14.10;;;;;;;24.74;100.00;101413.91;2072922;28;20194;-68
2022/07/04 01:49:12;;;;;;;16.33;13.13;;;;;;;24.66;100.00;101419.28;2065556;28;20229;-69
2022/07/04 01:50:12;;;;;;;14.30;12.10;;;;;;;24.63;100.00;101419.53;2065375;28;20244;-68
2022/07/04 01:51:13;;;;;;;12.43;10.90;;;;;;;24.59;100.00;101419.00;2064149;28;20195;-68
2022/07/04 01:52:15;;;;;;;13.87;12.40;;;;;;;24.55;100.00;101419.22;2070245;28;20674;-68
2022/07/04 01:53:16;;;;;;;14.20;12.80;;;;;;;24.54;100.00;101420.50;2072700;28;20204;-68
2022/07/04 01:54:16;;;;;;;14.93;12.20;;;;;;;24.47;100.00;101406.06;2070104;28;20187;-68
2022/07/04 01:55:16;;;;;;;13.27;11.87;;;;;;;24.57;100.00;101418.72;2065272;28;20205;-68
2022/07/04 01:56:17;;;;;;;13.50;11.70;;;;;;;24.59;100.00;101428.28;2072621;28;20186;-68
2022/07/04 01:57:17;;;;;;;15.53;11.90;;;;;;;24.18;100.00;101355.47;2073184;28;20624;-68
2022/07/04 01:58:18;;;;;;;13.13;11.80;;;;;;;24.58;100.00;101421.06;2073766;28;20262;-68
2022/07/04 01:59:18;;;;;;;14.63;13.30;;;;;;;24.48;100.00;101413.28;2073288;28;20198;-68
2022/07/04 02:01:38;;;;;;;13.70;12.43;;;;;;;24.56;100.00;101434.19;2072520;28;20296;-68
2022/07/04 02:02:39;;;;;;;14.37;12.83;;;;;;;24.51;100.00;101421.53;2066127;28;20202;-68
2022/07/04 02:03:39;;;;;;;14.87;13.30;;;;;;;24.56;100.00;101428.50;2070443;28;20208;-68
2022/07/04 02:04:40;;;;;;;14.50;13.20;;;;;;;24.57;100.00;101435.72;2069374;28;20221;-68
2022/07/04 02:05:43;;;;;;;14.53;13.13;;;;;;;24.11;100.00;101364.47;2068139;28;20194;-68
2022/07/04 02:06:43;;;;;;;15.27;12.43;;;;;;;24.51;100.00;101432.09;2071407;28;20656;-68
2022/07/04 02:07:44;;;;;;;14.17;12.83;;;;;;;23.92;100.00;101352.00;2067757;28;20570;-69
2022/07/04 02:10:04;;;;;;;14.97;13.47;;;;;;;24.37;100.00;101447.97;2066478;28;20174;-68
2022/07/04 02:11:05;;;;;;;15.47;13.83;;;;;;;24.38;100.00;101443.91;2072745;28;20275;-68
2022/07/04 02:13:25;;;;;;;15.47;12.57;;;;;;;24.36;100.00;101435.09;2064328;28;20170;-68
2022/07/04 02:14:25;;;;;;;15.63;12.37;;;;;;;24.44;100.00;101435.41;2065590;28;20422;-69
2022/07/04 02:15:26;;;;;;;16.27;12.70;;;;;;;24.39;100.00;101424.81;2072796;28;20229;-68
2022/07/04 02:16:26;;;;;;;21.40;13.50;;;;;;;24.46;100.00;101430.78;2073441;28;20178;-69
2022/07/04 02:17:27;;;;;;;19.13;13.53;;;;;;;24.46;100.00;101433.59;2067962;28;20194;-68
2022/07/04 02:18:27;;;;;;;23.67;13.83;;;;;;;24.29;100.00;101400.81;2065149;28;20210;-68
2022/07/04 02:19:29;;;;;;;20.43;12.73;;;;;;;24.47;100.00;101434.41;2065365;28;20186;-68
2022/07/04 02:20:30;;;;;;;17.30;12.40;;;;;;;23.70;100.00;101329.22;2070758;28;20657;-69
2022/07/04 02:21:31;;;;;;;18.43;12.93;;;;;;;24.46;100.00;101439.28;2065920;28;20178;-68
2022/07/04 02:22:31;;;;;;;14.37;12.87;;;;;;;24.48;100.00;101436.72;2072392;28;20208;-68
2022/07/04 02:23:31;;;;;;;14.00;12.47;;;;;;;24.38;100.00;101438.22;2064434;28;20186;-68
2022/07/04 02:24:32;;;;;;;13.80;12.43;;;;;;;24.43;100.00;101442.34;2072128;28;20178;-68
2022/07/04 02:25:33;;;;;;;14.30;12.00;;;;;;;24.37;100.00;101435.91;2072852;28;20283;-69
2022/07/04 02:26:33;;;;;;;14.80;13.30;;;;;;;24.45;100.00;101445.44;2068543;28;20218;-69
2022/07/04 02:27:34;;;;;;;13.83;12.53;;;;;;;24.43;100.00;101445.19;2066746;28;20244;-68
2022/07/04 02:28:34;;;;;;;14.23;12.80;;;;;;;24.45;100.00;101465.28;2070150;28;20166;-68
2022/07/04 02:29:36;;;;;;;14.13;12.77;;;;;;;24.44;100.00;101450.34;2066288;28;20538;-68
2022/07/04 02:30:36;;;;;;;14.17;12.70;;;;;;;24.42;100.00;101454.97;2072716;28;20651;-69
2022/07/04 02:31:37;;;;;;;13.90;12.60;;;;;;;24.34;100.00;101446.19;2073164;28;20551;-68
2022/07/04 02:32:38;;;;;;;13.33;11.97;;;;;;;24.40;100.00;101454.69;2065048;28;20182;-68
2022/07/04 02:33:38;;;;;;;13.00;11.63;;;;;;;24.40;100.00;101455.47;2064341;28;20179;-68
2022/07/04 02:34:39;;;;;;;13.13;11.80;;;;;;;24.39;100.00;101453.16;2069895;28;20200;-68
2022/07/04 02:35:39;;;;;;;13.27;11.97;;;;;;;24.36;100.00;101452.09;2070128;28;20201;-69
2022/07/04 02:36:40;;;;;;;13.60;12.10;;;;;;;24.34;100.00;101448.22;2073176;28;20190;-69
2022/07/04 02:37:41;;;;;;;15.13;12.00;;;;;;;24.05;100.00;101411.81;2072983;28;20174;-69
2022/07/04 02:38:41;;;;;;;16.37;13.00;;;;;;;24.25;100.00;101452.06;2073049;28;20212;-68
2022/07/04 02:39:42;;;;;;;18.57;12.53;;;;;;;24.24;100.00;101452.56;2073094;28;20248;-68
2022/07/04 02:40:42;;;;;;;14.43;12.63;;;;;;;23.50;100.00;101335.00;2069728;28;20663;-68
2022/07/04 02:41:42;;;;;;;15.07;12.40;;;;;;;24.29;100.00;101454.66;2072833;28;20196;-68
2022/07/04 02:42:43;;;;;;;13.33;11.87;;;;;;;24.30;100.00;101450.56;2067426;28;20225;-68
2022/07/04 02:43:43;;;;;;;13.67;11.97;;;;;;;24.24;100.00;101447.69;2071164;28;20198;-68
2022/07/04 02:44:45;;;;;;;13.90;12.50;;;;;;;24.29;100.00;101457.47;2069221;28;20288;-68
2022/07/04 02:45:45;;;;;;;13.33;11.93;;;;;;;24.29;100.00;101460.31;2064842;28;20577;-68
2022/07/04 02:46:46;;;;;;;13.40;12.00;;;;;;;24.27;100.00;101455.19;2066202;28;20171;-68
2022/07/04 02:47:46;;;;;;;13.40;12.13;;;;;;;24.27;100.00;101455.19;2072810;28;20181;-68
2022/07/04 02:48:47;;;;;;;14.63;12.80;;;;;;;24.23;100.00;101451.00;2073329;28;20235;-68
2022/07/04 02:49:47;;;;;;;20.50;13.37;;;;;;;24.27;100.00;101469.34;2065932;28;20194;-68
2022/07/04 02:50:48;;;;;;;16.07;13.53;;;;;;;23.33;100.00;101312.28;2070542;28;20252;-68
2022/07/04 02:51:48;;;;;;;15.20;13.67;;;;;;;24.26;100.00;101461.34;2067291;28;20569;-68
2022/07/04 02:52:49;;;;;;;19.93;14.73;;;;;;;23.86;100.00;101399.28;2067341;28;20248;-68
2022/07/04 02:53:49;;;;;;;19.60;14.33;;;;;;;24.21;100.00;101462.84;2072983;28;20174;-68
2022/07/04 02:54:52;;;;;;;24.60;14.27;;;;;;;24.21;100.00;101462.84;2072467;28;20205;-68
2022/07/04 02:55:53;;;;;;;19.97;14.20;;;;;;;24.18;100.00;101461.03;2072093;28;20174;-68
2022/07/04 02:56:53;;;;;;;16.83;13.33;;;;;;;23.67;100.00;101381.94;2065294;28;20178;-68
2022/07/04 02:57:54;;;;;;;16.10;13.00;;;;;;;24.09;100.00;101452.75;2064676;28;20193;-68
2022/07/04 02:58:54;;;;;;;14.73;13.20;;;;;;;24.18;100.00;101463.09;2064971;28;20212;-68
2022/07/04 02:59:55;;;;;;;13.63;12.20;;;;;;;23.40;100.00;101345.75;2064697;28;20210;-68
2022/07/04 03:00:55;;;;;;;14.63;12.90;;;;;;;24.13;100.00;101461.00;2067796;28;20239;-69
2022/07/04 03:01:55;;;;;;;12.90;11.60;;;;;;;24.07;100.00;101455.31;2071994;28;20201;-69
2022/07/04 03:02:56;;;;;;;13.47;12.10;;;;;;;23.49;100.00;101370.25;2066195;28;20254;-68
2022/07/04 03:03:57;;;;;;;13.30;11.90;;;;;;;23.89;100.00;101441.53;2071922;28;20616;-68
2022/07/04 03:04:57;;;;;;;15.53;12.67;;;;;;;23.98;100.00;101461.19;2065127;28;20174;-68
2022/07/04 03:05:58;;;;;;;16.80;13.33;;;;;;;24.01;100.00;101460.16;2064407;28;20190;-68
2022/07/04 03:06:58;;;;;;;16.90;13.00;;;;;;;23.93;100.00;101453.41;2064906;28;20271;-69
2022/07/04 03:07:59;;;;;;;14.37;12.90;;;;;;;23.97;100.00;101470.97;2070393;28;20566;-68
2022/07/04 03:08:59;;;;;;;15.40;13.30;;;;;;;23.89;100.00;101463.44;2068388;28;20178;-69
2022/07/04 03:10:00;;;;;;;22.40;13.73;;;;;;;23.35;100.00;101407.94;2064747;28;20221;-68
2022/07/04 03:11:01;;;;;;;14.23;12.70;;;;;;;23.89;100.00;101471.94;2064333;28;20190;-68
2022/07/04 03:12:02;;;;;;;19.30;12.77;;;;;;;23.91;100.00;101463.69;2065701;28;20178;-68
2022/07/04 03:13:02;;;;;;;14.87;12.67;;;;;;;23.93;100.00;101472.44;2071470;28;20279;-68
2022/07/04 03:14:03;;;;;;;13.73;12.43;;;;;;;23.97;100.00;101465.28;2072512;28;20235;-68
2022/07/04 03:15:04;;;;;;;13.80;12.37;;;;;;;24.00;100.00;101464.25;2072775;28;20243;-68
2022/07/04 03:16:04;;;;;;;14.33;12.40;;;;;;;23.96;100.00;101457.28;2072303;28;20182;-68
2022/07/04 03:17:05;;;;;;;14.13;12.83;;;;;;;23.72;100.00;101425.69;2072988;28;20193;-68
2022/07/04 03:18:05;;;;;;;13.87;12.43;;;;;;;24.02;100.00;101478.72;2068887;28;20277;-68
2022/07/04 03:19:06;;;;;;;14.90;13.13;;;;;;;24.03;100.00;101473.81;2064592;28;20225;-68
2022/07/04 03:20:07;;;;;;;15.77;13.40;;;;;;;24.05;100.00;101483.34;2068701;28;20253;-68
2022/07/04 03:21:08;;;;;;;15.20;13.63;;;;;;;23.25;100.00;101355.66;2064168;28;20217;-69
2022/07/04 03:22:08;;;;;;;15.03;13.43;;;;;;;24.07;100.00;101483.63;2072334;28;20420;-68
2022/07/04 03:23:09;;;;;;;14.83;13.40;;;;;;;23.34;100.00;101370.38;2064047;28;20186;-68
2022/07/04 03:24:10;;;;;;;14.33;13.03;;;;;;;24.08;100.00;101490.84;2064789;28;20182;-69
2022/07/04 03:25:10;;;;;;;15.77;13.43;;;;;;;23.80;100.00;101444.53;2070011;28;20308;-68
2022/07/04 03:26:11;;;;;;;14.70;13.30;;;;;;;24.09;100.00;101485.94;2067851;28;20197;-69
2022/07/04 03:27:11;;;;;;;17.20;13.10;;;;;;;24.04;100.00;101495.16;2067895;28;20559;-68
2022/07/04 03:28:12;;;;;;;14.50;12.60;;;;;;;24.02;100.00;101494.91;2072750;28;20231;-68
2022/07/04 03:29:12;;;;;;;14.17;12.73;;;;;;;24.00;100.00;101492.56;2072648;28;20184;-69
2022/07/04 03:30:13;;;;;;;13.90;12.60;;;;;;;24.01;100.00;101496.19;2073365;28;20256;-69
2022/07/04 03:31:13;;;;;;;14.73;13.23;;;;;;;23.97;100.00;101492.81;2064210;28;20318;-69
2022/07/04 03:32:14;;;;;;;14.93;13.07;;;;;;;24.01;100.00;101499.03;2064544;28;20178;-68
2022/07/04 03:33:14;;;;;;;13.67;12.47;;;;;;;24.04;100.00;101500.84;2069574;28;20193;-68
2022/07/04 03:34:15;;;;;;;13.70;12.40;;;;;;;24.03;100.00;101497.25;2068154;28;20564;-68
2022/07/04 03:35:15;;;;;;;14.77;13.17;;;;;;;23.89;100.00;101475.53;2066028;28;20229;-68
2022/07/04 03:36:16;;;;;;;13.67;12.37;;;;;;;24.08;100.00;101512.72;2067086;28;20262;-68
2022/07/04 03:37:16;;;;;;;14.67;12.27;;;;;;;24.09;100.00;101502.94;2070412;28;20185;-68
2022/07/04 03:38:17;;;;;;;14.83;13.17;;;;;;;24.08;100.00;101493.66;2064691;28;20657;-68
2022/07/04 03:39:17;;;;;;;14.33;12.83;;;;;;;24.08;100.00;101490.84;2064446;28;20249;-68
2022/07/04 03:40:19;;;;;;;14.47;13.07;;;;;;;24.16;100.00;101497.56;2066463;28;20287;-68
2022/07/04 03:41:19;;;;;;;14.13;12.73;;;;;;;24.18;100.00;101505.56;2066023;28;20564;-68
2022/07/04 03:42:20;;;;;;;13.80;12.50;;;;;;;24.18;100.00;101495.03;2070031;28;20199;-68
2022/07/04 03:43:20;;;;;;;13.97;12.63;;;;;;;24.22;100.00;101506.91;2067190;28;20194;-68
2022/07/04 03:44:21;;;;;;;14.47;12.97;;;;;;;23.95;100.00;101456.50;2068533;28;20218;-68
2022/07/04 03:45:22;;;;;;;14.70;13.30;;;;;;;24.30;100.00;101510.03;2064336;28;20186;-68
2022/07/04 03:46:23;;;;;;;14.83;13.23;;;;;;;24.36;100.00;101513.69;2065399;28;20180;-68
2022/07/04 03:47:23;;;;;;;15.00;12.87;;;;;;;24.35;100.00;101510.06;2072236;28;20193;-68
2022/07/04 03:48:23;;;;;;;15.27;13.80;;;;;;;24.09;100.00;101466.13;2071977;28;20189;-68
2022/07/04 03:49:24;;;;;;;15.63;12.87;;;;;;;24.02;100.00;101456.06;2070250;28;20190;-68
2022/07/04 03:50:25;;;;;;;14.03;12.73;;;;;;;24.38;100.00;101517.56;2072223;28;20255;-68
2022/07/04 03:51:25;;;;;;;15.53;13.93;;;;;;;24.44;100.00;101511.91;2067744;28;20616;-69
2022/07/04 03:52:26;;;;;;;15.37;13.93;;;;;;;24.33;100.00;101492.81;2064226;28;20602;-68
2022/07/04 03:53:26;;;;;;;15.60;13.83;;;;;;;24.49;100.00;101511.16;2066619;28;20186;-69
2022/07/04 03:54:28;;;;;;;15.03;13.53;;;;;;;24.49;100.00;101514.00;2071630;28;20174;-68
2022/07/04 03:55:29;;;;;;;15.07;13.63;;;;;;;24.55;100.00;101524.06;2064648;28;20174;-68
2022/07/04 03:56:30;;;;;;;15.43;14.03;;;;;;;24.52;100.00;101516.56;2064905;28;20178;-68
2022/07/04 03:57:31;;;;;;;15.70;14.20;;;;;;;24.56;100.00;101522.03;2064090;28;20252;-68
2022/07/04 03:58:31;;;;;;;15.77;14.27;;;;;;;24.59;100.00;101518.19;2064178;28;20233;-68
2022/07/04 03:59:31;;;;;;;16.10;14.53;;;;;;;24.65;100.00;101521.81;2069583;28;20678;-68
2022/07/04 04:00:32;;;;;;;15.97;14.33;;;;;;;24.67;100.00;101520.03;2072066;28;20189;-68
2022/07/04 04:01:33;;;;;;;16.40;14.80;;;;;;;24.68;100.00;101512.31;2069471;28;20194;-68
2022/07/04 04:02:34;;;;;;;17.73;15.83;;;;;;;24.04;100.00;101421.56;2066580;28;20189;-69
2022/07/04 04:06:13;;;;;;;18.20;16.27;;;;;;;24.68;100.00;101510.28;2072530;28;20214;-68
2022/07/04 04:07:13;;;;;;;17.10;15.20;;;;;;;24.78;100.00;101520.06;2069954;28;20173;-66
2022/07/04 04:08:14;;;;;;;18.53;16.03;;;;;;;24.85;100.00;101519.59;2070462;28;20701;-68
2022/07/04 04:09:16;;;;;;;17.57;15.70;;;;;;;24.86;100.00;101512.66;2071561;28;20177;-68
2022/07/04 04:10:16;;;;;;;15.80;14.40;;;;;;;24.81;100.00;101523.94;2072336;28;20598;-68
2022/07/04 04:11:17;;;;;;;16.93;15.13;;;;;;;24.91;100.00;101520.41;2071905;28;20182;-68
2022/07/04 04:12:17;;;;;;;17.50;15.20;;;;;;;24.56;100.00;101462.53;2072390;28;20195;-68
2022/07/04 04:13:18;;;;;;;16.87;15.33;;;;;;;25.00;100.00;101514.50;2066491;28;20182;-68
2022/07/04 04:14:19;;;;;;;16.73;15.23;;;;;;;25.06;100.00;101523.00;2068521;28;20182;-68
2022/07/04 04:15:20;;;;;;;17.33;15.53;;;;;;;24.42;100.00;101412.47;2071885;28;20205;-68
2022/07/04 04:16:20;;;;;;;16.40;14.60;;;;;;;25.00;100.00;101497.50;2072391;28;20651;-68
2022/07/04 04:17:21;;;;;;;18.60;16.63;;;;;;;25.11;100.00;101516.56;2072159;28;20216;-68
2022/07/04 04:18:21;;;;;;;20.07;16.53;;;;;;;25.11;100.00;101513.75;2072605;28;20261;-68
2022/07/04 04:19:22;;;;;;;18.60;16.67;;;;;;;25.04;100.00;101500.84;2071409;28;20222;-68
2022/07/04 04:20:22;;;;;;;17.93;16.23;;;;;;;25.15;100.00;101515.06;2071881;28;20284;-68
2022/07/04 04:21:23;;;;;;;16.70;15.07;;;;;;;25.18;100.00;101513.25;2072491;28;20260;-68
2022/07/04 04:22:23;;;;;;;17.00;15.40;;;;;;;25.21;100.00;101518.69;2072083;28;20221;-68
2022/07/04 04:23:24;;;;;;;18.13;15.07;;;;;;;24.76;100.00;101459.50;2066768;28;20217;-68
2022/07/04 04:24:24;;;;;;;16.77;15.13;;;;;;;25.30;100.00;101515.66;2066153;28;20228;-68
2022/07/04 04:25:25;;;;;;;17.40;15.17;;;;;;;25.33;100.00;101517.44;2070294;28;20241;-68
2022/07/04 04:26:25;;;;;;;16.10;14.70;;;;;;;24.65;100.00;101412.06;2072157;28;20243;-68
2022/07/04 04:27:26;;;;;;;19.50;16.37;;;;;;;25.36;100.00;101515.63;2071911;28;20194;-68
2022/07/04 04:28:26;;;;;;;17.30;14.93;;;;;;;25.28;100.00;101520.28;2071950;28;20676;-68
2022/07/04 04:29:27;;;;;;;15.93;14.33;;;;;;;25.26;100.00;101528.50;2070814;28;20197;-71
2022/07/04 04:30:27;;;;;;;16.93;15.13;;;;;;;25.27;100.00;101516.66;2071896;28;20228;-71
2022/07/04 04:31:28;;;;;;;18.60;16.40;;;;;;;25.35;100.00;101516.94;2071768;28;20197;-71
2022/07/04 04:32:28;;;;;;;17.57;15.70;;;;;;;25.34;100.00;101513.31;2071845;28;20239;-71
2022/07/04 04:33:29;;;;;;;17.57;15.87;;;;;;;25.36;100.00;101507.13;2071879;28;20189;-71
2022/07/04 04:34:29;;;;;;;20.03;15.13;;;;;;;24.75;100.00;101412.59;2072361;28;20190;-71
2022/07/04 04:35:30;;;;;;;15.80;14.20;;;;;;;25.11;100.00;101462.69;2072071;28;20189;-71
2022/07/04 04:36:30;;;;;;;17.33;15.67;;;;;;;25.53;100.00;101522.88;2070417;28;20473;-71
2022/07/04 04:37:31;;;;;;;15.83;14.33;;;;;;;25.55;100.00;101519.53;2071115;28;20189;-71
2022/07/04 04:38:31;;;;;;;16.50;14.97;;;;;;;25.60;100.00;101515.94;2071733;28;20652;-71
2022/07/04 04:39:32;;;;;;;16.23;14.67;;;;;;;25.60;100.00;101516.72;2071331;28;20190;-71